VRG1345 SBSP-SBRJ
Flight info
| Callsign | VRG1345 |
|---|---|
| Flight time | N/A |
| Altitude | 29000 |
| Route | NIBRU UZ171 KEVUN |
| Aircraft | B736/M-SDE2E3FGHIRWXY/LB1 |
Departure
| Time | 2026-05-04 22:58 |
|---|---|
| Airport | Congonhas–Deputado Freitas Nobre Airport (SBSP) |
Arrival
| Time | N/A |
|---|---|
| Airport | Santos Dumont Airport (SBRJ) |
| Time | Latitude | Longitude | Altitude | Speed | Heading |
|---|---|---|---|---|---|
| 2026-05-04 22:41 | -23.62544 | -46.65944 | 2612 ft | 0 kts | 237° |
| 2026-05-04 22:52 | -23.62543 | -46.65942 | 2612 ft | 3 kts | 237° |
| 2026-05-04 22:53 | -23.62532 | -46.65923 | 2612 ft | 3 kts | 237° |
| 2026-05-04 22:53 | -23.62528 | -46.65915 | 2612 ft | 0 kts | 332° |
| 2026-05-04 22:55 | -23.62511 | -46.65920 | 2611 ft | 12 kts | 351° |
| 2026-05-04 22:55 | -23.62372 | -46.65963 | 2606 ft | 24 kts | 332° |
| 2026-05-04 22:55 | -23.62231 | -46.66046 | 2602 ft | 23 kts | 334° |
| 2026-05-04 22:56 | -23.62135 | -46.66103 | 2593 ft | 0 kts | 326° |
| 2026-05-04 22:56 | -23.62131 | -46.66106 | 2593 ft | 3 kts | 325° |
| 2026-05-04 22:56 | -23.62101 | -46.66128 | 2591 ft | 8 kts | 331° |
| 2026-05-04 22:56 | -23.62048 | -46.66100 | 2594 ft | 5 kts | 77° |
| 2026-05-04 22:57 | -23.62065 | -46.66063 | 2592 ft | 7 kts | 141° |
| 2026-05-04 22:57 | -23.62106 | -46.66032 | 2595 ft | 33 kts | 147° |
| 2026-05-04 22:57 | -23.62555 | -46.65717 | 2614 ft | 119 kts | 148° |
| 2026-05-04 22:57 | -23.63398 | -46.65204 | 2960 ft | 153 kts | 148° |
| 2026-05-04 22:58 | -23.64291 | -46.64531 | 3949 ft | 150 kts | 135° |
| 2026-05-04 22:58 | -23.64821 | -46.63583 | 5064 ft | 143 kts | 118° |
| 2026-05-04 22:58 | -23.65314 | -46.62556 | 5681 ft | 171 kts | 118° |
| 2026-05-04 22:58 | -23.65950 | -46.61273 | 5983 ft | 212 kts | 117° |
| 2026-05-04 22:59 | -23.66715 | -46.59742 | 6276 ft | 248 kts | 118° |
| 2026-05-04 22:59 | -23.67603 | -46.57986 | 6842 ft | 274 kts | 118° |
| 2026-05-04 22:59 | -23.68543 | -46.56150 | 7835 ft | 281 kts | 119° |
| 2026-05-04 22:59 | -23.69521 | -46.54250 | 8780 ft | 292 kts | 119° |
| 2026-05-04 23:00 | -23.70531 | -46.52291 | 9803 ft | 299 kts | 120° |
| 2026-05-04 23:00 | -23.71535 | -46.50274 | 10735 ft | 309 kts | 114° |
| 2026-05-04 23:00 | -23.71933 | -46.47893 | 11206 ft | 333 kts | 86° |
| 2026-05-04 23:00 | -23.71639 | -46.45348 | 12016 ft | 342 kts | 81° |
| 2026-05-04 23:01 | -23.71254 | -46.42770 | 12960 ft | 347 kts | 80° |
| 2026-05-04 23:01 | -23.70849 | -46.40154 | 13907 ft | 352 kts | 81° |
| 2026-05-04 23:01 | -23.70444 | -46.37498 | 14680 ft | 358 kts | 81° |
| 2026-05-04 23:01 | -23.70039 | -46.34780 | 15374 ft | 367 kts | 81° |
| 2026-05-04 23:02 | -23.69634 | -46.32001 | 16099 ft | 375 kts | 81° |
| 2026-05-04 23:02 | -23.69225 | -46.29165 | 16803 ft | 382 kts | 81° |
| 2026-05-04 23:02 | -23.68815 | -46.26301 | 17534 ft | 389 kts | 81° |
| 2026-05-04 23:02 | -23.68389 | -46.23321 | 18268 ft | 397 kts | 81° |
| 2026-05-04 23:03 | -23.67966 | -46.20363 | 18893 ft | 404 kts | 81° |
| 2026-05-04 23:03 | -23.67528 | -46.17300 | 19428 ft | 414 kts | 81° |
| 2026-05-04 23:03 | -23.67080 | -46.14181 | 20146 ft | 417 kts | 81° |
| 2026-05-04 23:03 | -23.66627 | -46.11035 | 20857 ft | 422 kts | 81° |
| 2026-05-04 23:04 | -23.66169 | -46.07845 | 21495 ft | 429 kts | 81° |
| 2026-05-04 23:04 | -23.65703 | -46.04604 | 22145 ft | 435 kts | 81° |
| 2026-05-04 23:04 | -23.65230 | -46.01309 | 22781 ft | 442 kts | 81° |
| 2026-05-04 23:04 | -23.64749 | -45.97971 | 23403 ft | 448 kts | 81° |
| 2026-05-04 23:05 | -23.64260 | -45.94582 | 23969 ft | 454 kts | 81° |
| 2026-05-04 23:05 | -23.63784 | -45.91288 | 24515 ft | 458 kts | 81° |
| 2026-05-04 23:05 | -23.63289 | -45.87870 | 25247 ft | 457 kts | 80° |
| 2026-05-04 23:05 | -23.62793 | -45.84450 | 26081 ft | 455 kts | 80° |
| 2026-05-04 23:06 | -23.62306 | -45.81094 | 26806 ft | 455 kts | 79° |
| 2026-05-04 23:06 | -23.61809 | -45.77679 | 27523 ft | 456 kts | 79° |
| 2026-05-04 23:06 | -23.61310 | -45.74252 | 28238 ft | 457 kts | 79° |
| 2026-05-04 23:06 | -23.60812 | -45.70834 | 28924 ft | 456 kts | 78° |
| 2026-05-04 23:07 | -23.60315 | -45.67430 | 29160 ft | 452 kts | 78° |
| 2026-05-04 23:07 | -23.59821 | -45.64052 | 29178 ft | 450 kts | 78° |
| 2026-05-04 23:07 | -23.58827 | -45.57283 | 29197 ft | 454 kts | 79° |
| 2026-05-04 23:08 | -23.57826 | -45.50472 | 29202 ft | 454 kts | 78° |
| 2026-05-04 23:08 | -23.56727 | -45.43693 | 29189 ft | 453 kts | 75° |
| 2026-05-04 23:09 | -23.55289 | -45.37011 | 29201 ft | 452 kts | 73° |
| 2026-05-04 23:09 | -23.53814 | -45.30347 | 29193 ft | 451 kts | 73° |
| 2026-05-04 23:10 | -23.52380 | -45.23692 | 29199 ft | 448 kts | 74° |
| 2026-05-04 23:10 | -23.51240 | -45.18315 | 29183 ft | 427 kts | 74° |
| 2026-05-04 23:11 | -23.50582 | -45.15209 | 29165 ft | 413 kts | 74° |
| 2026-05-04 23:11 | -23.49946 | -45.12220 | 29177 ft | 399 kts | 73° |
| 2026-05-04 23:11 | -23.49326 | -45.09313 | 29167 ft | 386 kts | 73° |
| 2026-05-04 23:11 | -23.48735 | -45.06545 | 29168 ft | 373 kts | 73° |
| 2026-05-04 23:12 | -23.47965 | -45.02950 | 29172 ft | 357 kts | 73° |
| 2026-05-04 23:12 | -23.47592 | -45.01214 | 29175 ft | 352 kts | 73° |
| 2026-05-04 23:12 | -23.47020 | -44.98555 | 29049 ft | 364 kts | 73° |
| 2026-05-04 23:12 | -23.46436 | -44.95852 | 28634 ft | 375 kts | 73° |
| 2026-05-04 23:13 | -23.45831 | -44.93061 | 28142 ft | 382 kts | 74° |
| 2026-05-04 23:13 | -23.45210 | -44.90240 | 27622 ft | 386 kts | 74° |
| 2026-05-04 23:13 | -23.44576 | -44.87388 | 27119 ft | 390 kts | 74° |
| 2026-05-04 23:13 | -23.43934 | -44.84499 | 26615 ft | 393 kts | 74° |
| 2026-05-04 23:14 | -23.43287 | -44.81596 | 26129 ft | 396 kts | 74° |
| 2026-05-04 23:14 | -23.42631 | -44.78664 | 25636 ft | 399 kts | 75° |
| 2026-05-04 23:14 | -23.41972 | -44.75716 | 25169 ft | 402 kts | 75° |
| 2026-05-04 23:14 | -23.41308 | -44.72740 | 24527 ft | 409 kts | 75° |
| 2026-05-04 23:15 | -23.40627 | -44.69687 | 23761 ft | 420 kts | 76° |
| 2026-05-04 23:15 | -23.39943 | -44.66621 | 23231 ft | 420 kts | 76° |
| 2026-05-04 23:15 | -23.39260 | -44.63558 | 22885 ft | 413 kts | 76° |
| 2026-05-04 23:15 | -23.38585 | -44.60536 | 22599 ft | 406 kts | 76° |
| 2026-05-04 23:16 | -23.37930 | -44.57606 | 22470 ft | 395 kts | 76° |
| 2026-05-04 23:16 | -23.37288 | -44.54738 | 22371 ft | 383 kts | 75° |
| 2026-05-04 23:16 | -23.36668 | -44.51969 | 22287 ft | 371 kts | 75° |
| 2026-05-04 23:16 | -23.36064 | -44.49276 | 22215 ft | 360 kts | 76° |
| 2026-05-04 23:17 | -23.35482 | -44.46672 | 22141 ft | 349 kts | 75° |
| 2026-05-04 23:17 | -23.34912 | -44.44133 | 21993 ft | 342 kts | 76° |
| 2026-05-04 23:17 | -23.34376 | -44.41628 | 21729 ft | 339 kts | 82° |
| 2026-05-04 23:17 | -23.34467 | -44.39103 | 21436 ft | 332 kts | 108° |
| 2026-05-04 23:18 | -23.35419 | -44.36867 | 21175 ft | 319 kts | 133° |
| 2026-05-04 23:18 | -23.36983 | -44.35253 | 20854 ft | 306 kts | 155° |
| 2026-05-04 23:18 | -23.38875 | -44.34389 | 20511 ft | 293 kts | 176° |
| 2026-05-04 23:18 | -23.40858 | -44.34270 | 20165 ft | 281 kts | 194° |
| 2026-05-04 23:19 | -23.42698 | -44.34837 | 19820 ft | 272 kts | 212° |
| 2026-05-04 23:19 | -23.44242 | -44.35968 | 19482 ft | 266 kts | 226° |
| 2026-05-04 23:19 | -23.45467 | -44.37454 | 19145 ft | 262 kts | 239° |
| 2026-05-04 23:19 | -23.46233 | -44.39240 | 18800 ft | 260 kts | 255° |
| 2026-05-04 23:20 | -23.46694 | -44.41149 | 18474 ft | 261 kts | 257° |
| 2026-05-04 23:20 | -23.47134 | -44.43073 | 18086 ft | 262 kts | 257° |
| 2026-05-04 23:20 | -23.47571 | -44.45007 | 17703 ft | 263 kts | 257° |
| 2026-05-04 23:20 | -23.48005 | -44.46923 | 17326 ft | 264 kts | 257° |
| 2026-05-04 23:21 | -23.48454 | -44.48893 | 16949 ft | 265 kts | 257° |
| 2026-05-04 23:21 | -23.48893 | -44.50826 | 16584 ft | 267 kts | 257° |
| 2026-05-04 23:21 | -23.49339 | -44.52788 | 16246 ft | 267 kts | 257° |
| 2026-05-04 23:21 | -23.49714 | -44.54718 | 16180 ft | 256 kts | 267° |
| 2026-05-04 23:22 | -23.49531 | -44.56607 | 16187 ft | 250 kts | 283° |
| 2026-05-04 23:22 | -23.48896 | -44.58380 | 16180 ft | 252 kts | 297° |
| 2026-05-04 23:22 | -23.47845 | -44.59919 | 16183 ft | 256 kts | 312° |
| 2026-05-04 23:22 | -23.46414 | -44.61104 | 16183 ft | 262 kts | 328° |
| 2026-05-04 23:23 | -23.44680 | -44.61749 | 16168 ft | 270 kts | 351° |
| 2026-05-04 23:23 | -23.42712 | -44.61498 | 16213 ft | 306 kts | 16° |
| 2026-05-04 23:23 | -23.40780 | -44.60237 | 16202 ft | 342 kts | 42° |
| 2026-05-04 23:23 | -23.39386 | -44.58146 | 16189 ft | 349 kts | 62° |
| 2026-05-04 23:24 | -23.38355 | -44.55697 | 16194 ft | 352 kts | 67° |
| 2026-05-04 23:24 | -23.37451 | -44.53261 | 16170 ft | 351 kts | 68° |
| 2026-05-04 23:24 | -23.36539 | -44.50754 | 16170 ft | 351 kts | 68° |
| 2026-05-04 23:24 | -23.35641 | -44.48330 | 16174 ft | 350 kts | 67° |
| 2026-05-04 23:25 | -23.34714 | -44.45881 | 16170 ft | 350 kts | 66° |
| 2026-05-04 23:25 | -23.33772 | -44.43447 | 16172 ft | 349 kts | 66° |
| 2026-05-04 23:25 | -23.32816 | -44.41007 | 16173 ft | 350 kts | 66° |
| 2026-05-04 23:25 | -23.31861 | -44.38580 | 16175 ft | 350 kts | 66° |
| 2026-05-04 23:26 | -23.30901 | -44.36145 | 16182 ft | 349 kts | 66° |
| 2026-05-04 23:26 | -23.29938 | -44.33707 | 15785 ft | 354 kts | 66° |
| 2026-05-04 23:26 | -23.28962 | -44.31237 | 15178 ft | 357 kts | 66° |
| 2026-05-04 23:26 | -23.27980 | -44.28755 | 14687 ft | 356 kts | 66° |
| 2026-05-04 23:27 | -23.27004 | -44.26288 | 14271 ft | 353 kts | 66° |
| 2026-05-04 23:27 | -23.26037 | -44.23843 | 13858 ft | 349 kts | 66° |
| 2026-05-04 23:27 | -23.25082 | -44.21432 | 13415 ft | 345 kts | 66° |
| 2026-05-04 23:27 | -23.24137 | -44.19046 | 13012 ft | 341 kts | 66° |
| 2026-05-04 23:28 | -23.23206 | -44.16697 | 12627 ft | 336 kts | 66° |
| 2026-05-04 23:28 | -23.22288 | -44.14380 | 12234 ft | 332 kts | 66° |
| 2026-05-04 23:28 | -23.21376 | -44.12083 | 11844 ft | 329 kts | 66° |
| 2026-05-04 23:28 | -23.20485 | -44.09838 | 11450 ft | 326 kts | 66° |
| 2026-05-04 23:29 | -23.19583 | -44.07598 | 11152 ft | 320 kts | 64° |
| 2026-05-04 23:29 | -23.18624 | -44.05476 | 10985 ft | 312 kts | 63° |
| 2026-05-04 23:29 | -23.17616 | -44.03324 | 10809 ft | 306 kts | 62° |
| 2026-05-04 23:29 | -23.16655 | -44.01263 | 10649 ft | 305 kts | 63° |
| 2026-05-04 23:30 | -23.15700 | -43.99197 | 10485 ft | 306 kts | 63° |
| 2026-05-04 23:30 | -23.14791 | -43.97116 | 10314 ft | 300 kts | 64° |
| 2026-05-04 23:30 | -23.13929 | -43.95083 | 10146 ft | 292 kts | 64° |
| 2026-05-04 23:30 | -23.13090 | -43.93100 | 9990 ft | 286 kts | 64° |
| 2026-05-04 23:31 | -23.12261 | -43.91146 | 9823 ft | 283 kts | 64° |
| 2026-05-04 23:31 | -23.11449 | -43.89238 | 9661 ft | 282 kts | 64° |
| 2026-05-04 23:31 | -23.10623 | -43.87307 | 9521 ft | 283 kts | 64° |
| 2026-05-04 23:31 | -23.09794 | -43.85368 | 9361 ft | 284 kts | 64° |
| 2026-05-04 23:32 | -23.08955 | -43.83415 | 9216 ft | 285 kts | 64° |
| 2026-05-04 23:32 | -23.08115 | -43.81456 | 9064 ft | 287 kts | 64° |
| 2026-05-04 23:32 | -23.07270 | -43.79486 | 8907 ft | 289 kts | 64° |
| 2026-05-04 23:32 | -23.06419 | -43.77500 | 8751 ft | 290 kts | 64° |
| 2026-05-04 23:33 | -23.05568 | -43.75516 | 8586 ft | 290 kts | 64° |
| 2026-05-04 23:33 | -23.04716 | -43.73532 | 8429 ft | 288 kts | 65° |
| 2026-05-04 23:33 | -23.03878 | -43.71579 | 8270 ft | 284 kts | 65° |
| 2026-05-04 23:33 | -23.03027 | -43.69600 | 8083 ft | 281 kts | 64° |
| 2026-05-04 23:34 | -23.02190 | -43.67678 | 7829 ft | 281 kts | 64° |
| 2026-05-04 23:34 | -23.01348 | -43.65758 | 7575 ft | 281 kts | 65° |
| 2026-05-04 23:34 | -23.00533 | -43.63897 | 7337 ft | 281 kts | 65° |
| 2026-05-04 23:34 | -22.99690 | -43.61972 | 7136 ft | 282 kts | 65° |
| 2026-05-04 23:35 | -22.98852 | -43.60067 | 6945 ft | 278 kts | 65° |
| 2026-05-04 23:35 | -22.98026 | -43.58190 | 6806 ft | 273 kts | 65° |
| 2026-05-04 23:35 | -22.97208 | -43.56331 | 6606 ft | 272 kts | 65° |
| 2026-05-04 23:35 | -22.96395 | -43.54479 | 6476 ft | 273 kts | 65° |
| 2026-05-04 23:36 | -22.95560 | -43.52586 | 6303 ft | 275 kts | 65° |
| 2026-05-04 23:36 | -22.94742 | -43.50724 | 6201 ft | 272 kts | 65° |
| 2026-05-04 23:36 | -22.93948 | -43.48857 | 6086 ft | 275 kts | 66° |
| 2026-05-04 23:36 | -22.93133 | -43.46926 | 5563 ft | 279 kts | 66° |
| 2026-05-04 23:37 | -22.92335 | -43.45033 | 5245 ft | 273 kts | 65° |
| 2026-05-04 23:37 | -22.91537 | -43.43143 | 4943 ft | 271 kts | 66° |
| 2026-05-04 23:37 | -22.90753 | -43.41292 | 4642 ft | 270 kts | 65° |
| 2026-05-04 23:37 | -22.89969 | -43.39443 | 4324 ft | 265 kts | 66° |
| 2026-05-04 23:38 | -22.89217 | -43.37668 | 4035 ft | 255 kts | 65° |
| 2026-05-04 23:38 | -22.88489 | -43.35949 | 3764 ft | 245 kts | 65° |
| 2026-05-04 23:38 | -22.87893 | -43.34247 | 3500 ft | 237 kts | 74° |
| 2026-05-04 23:38 | -22.87468 | -43.32553 | 3255 ft | 228 kts | 76° |
| 2026-05-04 23:39 | -22.87068 | -43.30916 | 3008 ft | 221 kts | 75° |
| 2026-05-04 23:39 | -22.86712 | -43.29323 | 2775 ft | 214 kts | 84° |
| 2026-05-04 23:39 | -22.86668 | -43.27740 | 2559 ft | 207 kts | 91° |
| 2026-05-04 23:39 | -22.86696 | -43.26203 | 2327 ft | 200 kts | 91° |
| 2026-05-04 23:40 | -22.86720 | -43.24706 | 2137 ft | 199 kts | 91° |